Pearl Of Scandinavia — OWFU2 — position and weather

sailwx.info

Track history (hours):
 
Tides and Currents Weather Stations Pressure Air Temp Water Temp Dewpoint Dewpoint Depression Visibility Wind Speed Wind Dir Waves Ship Positions

Pearl Of Scandinavia

Last reported at 2020-Jan-25 03:30 UTC. Time now 2020-Jan-25 04:38 UTC.
Position N 58°41' E 010°46'.

Length 176.4 m; beam 34 m; draft 6.215 m.

Type: Ship. MMSI: 219945000.

Date/timePositionNaut miles runAvg speedWind from/ knotsBaromVisibWave heightAir tempDewpointWater temp
2020-Jan-25 03:30N 58°41' E 010°46'3915.7
2020-Jan-25 01:00N 58°04' E 011°10'815.8
2020-Jan-25 00:30N 57°56' E 011°15'2416.0
2020-Jan-24 23:00N 57°34' E 011°31'11316.1
2020-Jan-24 16:00N 55°48' E 012°43'7 7.4
2020-Jan-24 15:00N 55°42' E 012°36'0 0.0
2020-Jan-24 14:00N 55°42' E 012°36'0 0.0
2020-Jan-24 12:00N 55°42' E 012°36'0 0.0
2020-Jan-24 11:00N 55°42' E 012°36'0 0.0
2020-Jan-24 10:30N 55°42' E 012°36'0 0.0
2020-Jan-24 09:57N 55°42' E 012°36'12 4.9
2020-Jan-24 07:30N 55°53' E 012°44'816.6
2020-Jan-24 07:01N 56°01' E 012°40'10015.4
2020-Jan-24 00:31N 57°33' E 011°30'1717.2
2020-Jan-23 23:30N 57°49' E 011°18'2516.7
2020-Jan-23 22:00N 58°13' E 011°03'8916.2
2020-Jan-23 16:30N 59°41' E 010°36'1413.5
2020-Jan-23 15:30N 59°54' E 010°44'0 0.3
2020-Jan-23 13:55N 59°54' E 010°45'0 0.0
2020-Jan-23 12:28N 59°54' E 010°45'0 0.0
2020-Jan-23 10:58N 59°54' E 010°45'0 0.0
2020-Jan-23 09:58N 59°54' E 010°45'34 8.5
2020-Jan-23 06:00N 59°21' E 010°35'917.5
2020-Jan-23 05:30N 59°12' E 010°38'21915.1
2020-Jan-22 14:57N 55°42' E 012°36'0 0.0
2020-Jan-22 13:00N 55°42' E 012°36'0 0.0
2020-Jan-22 10:59N 55°42' E 012°36'0 0.0
2020-Jan-22 08:56N 55°42' E 012°36'0 0.5
2020-Jan-22 08:30N 55°42' E 012°36'12715.0
2020-Jan-22 00:01N 57°43' E 011°22'5615.9
2020-Jan-21 20:29N 58°36' E 010°51'7810.4
2020-Jan-21 13:00N 59°54' E 010°45'0 0.0
2020-Jan-21 11:30N 59°54' E 010°45'0 0.0
2020-Jan-21 10:30N 59°54' E 010°45'13 4.3
2020-Jan-21 07:30N 59°42' E 010°36'714.0
2020-Jan-21 07:01N 59°35' E 010°38'4715.6
2020-Jan-21 04:00N 58°49' E 010°44'815.6
2020-Jan-21 03:30N 58°41' E 010°46'815.9
2020-Jan-21 03:00N 58°33' E 010°51'2416.2
2020-Jan-21 01:30N 58°10' E 011°06'915.8
2020-Jan-21 00:57N 58°02' E 011°12'6316.1
2020-Jan-20 21:01N 57°04' E 011°60'6516.2
2020-Jan-20 17:01N 56°03' E 012°39'2110.4
2020-Jan-20 14:59N 55°42' E 012°36'0 0.0
2020-Jan-20 13:29N 55°42' E 012°36'0 0.0
2020-Jan-20 11:59N 55°42' E 012°36'0 0.0
2020-Jan-20 10:59N 55°42' E 012°36'0 0.0
2020-Jan-20 09:29N 55°42' E 012°36'0 0.0
2020-Jan-20 08:56N 55°42' E 012°36'18 9.1
2020-Jan-20 07:01N 55°60' E 012°40'1414.1
2020-Jan-20 06:01N 56°12' E 012°27'7115.9
2020-Jan-20 01:31N 57°19' E 011°46'816.3
2020-Jan-20 01:01N 57°26' E 011°37'2516.7
2020-Jan-19 23:31N 57°49' E 011°17'4116.4
2020-Jan-19 21:00N 58°28' E 010°55'3316.4
2020-Jan-19 19:00N 59°00' E 010°42'917.5
2020-Jan-19 18:30N 59°09' E 010°39'3316.7
2020-Jan-19 16:30N 59°42' E 010°35'13 3.7
2020-Jan-19 12:58N 59°54' E 010°45'0 0.0
2020-Jan-19 10:58N 59°54' E 010°45'0 0.0
2020-Jan-19 10:28N 59°54' E 010°45'0 0.0
2020-Jan-19 09:58N 59°54' E 010°45'0 0.1
2020-Jan-19 08:29N 59°54' E 010°44'2713.7
2020-Jan-19 06:30N 59°27' E 010°34'3215.8
2020-Jan-19 04:30N 58°56' E 010°42'1615.4
2020-Jan-19 03:30N 58°41' E 010°46'4217.0
2020-Jan-19 01:00N 58°01' E 011°12'816.1
2020-Jan-19 00:31N 57°53' E 011°16'4016.2
2020-Jan-18 22:00N 57°17' E 011°49'816.2
2020-Jan-18 21:30N 57°09' E 011°56'6216.3
2020-Jan-18 17:42N 56°10' E 012°30'316.3
2020-Jan-18 17:30N 56°07' E 012°33'1616.0
2020-Jan-18 16:31N 55°53' E 012°44'1211.6
2020-Jan-18 15:30N 55°42' E 012°36'0 0.0
2020-Jan-18 15:00N 55°42' E 012°36'0 0.0
2020-Jan-18 13:24N 55°42' E 012°36'0 0.0
2020-Jan-18 10:30N 55°42' E 012°36'0 0.0
2020-Jan-18 09:54N 55°42' E 012°36'25 7.4
2020-Jan-18 06:30N 56°07' E 012°32'915.6
2020-Jan-18 05:55N 56°16' E 012°25'6216.0
2020-Jan-18 02:00N 57°15' E 011°49'1616.1
2020-Jan-18 01:00N 57°28' E 011°32'1716.8
2020-Jan-18 00:00N 57°43' E 011°19'6516.3
2020-Jan-17 20:00N 58°45' E 010°38'2416.0
2020-Jan-17 18:30N 59°09' E 010°38'1717.0
2020-Jan-17 17:30N 59°25' E 010°33'1615.6
2020-Jan-17 16:30N 59°41' E 010°36'14 9.1
2020-Jan-17 14:59N 59°54' E 010°45'0 0.0
2020-Jan-17 11:29N 59°54' E 010°45'0 0.1
2020-Jan-17 08:30N 59°54' E 010°44'2013.3
2020-Jan-17 07:00N 59°35' E 010°38'3215.8
2020-Jan-17 05:00N 59°03' E 010°41'815.8
2020-Jan-17 04:30N 58°55' E 010°43'815.3
2020-Jan-17 04:00N 58°47' E 010°44'2415.8
2020-Jan-17 02:30N 58°25' E 010°56'3216.0
2020-Jan-17 00:31N 57°54' E 011°16'11516.1
2020-Jan-16 17:22N 56°07' E 012°33'616.0
2020-Jan-16 17:00N 56°03' E 012°39'21 6.8
2020-Jan-16 13:57N 55°42' E 012°36'0 0.0
2020-Jan-16 13:00N 55°42' E 012°36'0 0.0
2020-Jan-16 12:30N 55°42' E 012°36'0 0.0
2020-Jan-16 11:48N 55°42' E 012°36'0 0.0
2020-Jan-16 11:00N 55°42' E 012°36'0 0.0
2020-Jan-16 09:30N 55°42' E 012°36'0 0.3
2020-Jan-16 08:30N 55°42' E 012°36'9515.2
2020-Jan-16 02:14N 57°14' E 011°51'1115.8
2020-Jan-16 01:30N 57°24' E 011°39'3216.0
2020-Jan-15 23:30N 57°52' E 011°11'1616.4
2020-Jan-15 22:30N 58°07' E 010°58'3915.7
2020-Jan-15 20:00N 58°45' E 010°38'816.2
2020-Jan-15 19:30N 58°53' E 010°38'2516.6
2020-Jan-15 18:00N 59°18' E 010°36'37 9.1
2020-Jan-15 13:59N 59°54' E 010°45'0 0.0
2020-Jan-15 12:29N 59°54' E 010°45'0 0.0
2020-Jan-15 11:29N 59°54' E 010°45'0 0.0
2020-Jan-15 09:29N 59°54' E 010°45'0 0.1
2020-Jan-15 08:30N 59°54' E 010°45'5114.7
2020-Jan-15 05:00N 59°03' E 010°41'  
Track history (hours):
 
Tides and Currents Weather Stations Pressure Air Temp Water Temp Dewpoint Dewpoint Depression Visibility Wind Speed Wind Dir Waves Ship Positions

Pearl Of Scandinavia

Last reported at 2020-Jan-25 03:30 UTC. Time now 2020-Jan-25 04:38 UTC.
Position N 58°41' E 010°46'.

Length 176.4 m; beam 34 m; draft 6.215 m.

Type: Ship. MMSI: 219945000.

Date/timePositionNaut miles runAvg speedWind from/ knotsBaromVisibWave heightAir tempDewpointWater temp
2020-Jan-25 03:30N 58°41' E 010°46'3915.7
2020-Jan-25 01:00N 58°04' E 011°10'815.8
2020-Jan-25 00:30N 57°56' E 011°15'2416.0
2020-Jan-24 23:00N 57°34' E 011°31'11316.1
2020-Jan-24 16:00N 55°48' E 012°43'7 7.4
2020-Jan-24 15:00N 55°42' E 012°36'0 0.0
2020-Jan-24 14:00N 55°42' E 012°36'0 0.0
2020-Jan-24 12:00N 55°42' E 012°36'0 0.0
2020-Jan-24 11:00N 55°42' E 012°36'0 0.0
2020-Jan-24 10:30N 55°42' E 012°36'0 0.0
2020-Jan-24 09:57N 55°42' E 012°36'12 4.9
2020-Jan-24 07:30N 55°53' E 012°44'816.6
2020-Jan-24 07:01N 56°01' E 012°40'10015.4
2020-Jan-24 00:31N 57°33' E 011°30'1717.2
2020-Jan-23 23:30N 57°49' E 011°18'2516.7
2020-Jan-23 22:00N 58°13' E 011°03'8916.2
2020-Jan-23 16:30N 59°41' E 010°36'1413.5
2020-Jan-23 15:30N 59°54' E 010°44'0 0.3
2020-Jan-23 13:55N 59°54' E 010°45'0 0.0
2020-Jan-23 12:28N 59°54' E 010°45'0 0.0
2020-Jan-23 10:58N 59°54' E 010°45'0 0.0
2020-Jan-23 09:58N 59°54' E 010°45'34 8.5
2020-Jan-23 06:00N 59°21' E 010°35'917.5
2020-Jan-23 05:30N 59°12' E 010°38'21915.1
2020-Jan-22 14:57N 55°42' E 012°36'0 0.0
2020-Jan-22 13:00N 55°42' E 012°36'0 0.0
2020-Jan-22 10:59N 55°42' E 012°36'0 0.0
2020-Jan-22 08:56N 55°42' E 012°36'0 0.5
2020-Jan-22 08:30N 55°42' E 012°36'12715.0
2020-Jan-22 00:01N 57°43' E 011°22'5615.9
2020-Jan-21 20:29N 58°36' E 010°51'7810.4
2020-Jan-21 13:00N 59°54' E 010°45'0 0.0
2020-Jan-21 11:30N 59°54' E 010°45'0 0.0
2020-Jan-21 10:30N 59°54' E 010°45'13 4.3
2020-Jan-21 07:30N 59°42' E 010°36'714.0
2020-Jan-21 07:01N 59°35' E 010°38'4715.6
2020-Jan-21 04:00N 58°49' E 010°44'815.6
2020-Jan-21 03:30N 58°41' E 010°46'815.9
2020-Jan-21 03:00N 58°33' E 010°51'2416.2
2020-Jan-21 01:30N 58°10' E 011°06'915.8
2020-Jan-21 00:57N 58°02' E 011°12'6316.1
2020-Jan-20 21:01N 57°04' E 011°60'6516.2
2020-Jan-20 17:01N 56°03' E 012°39'2110.4
2020-Jan-20 14:59N 55°42' E 012°36'0 0.0
2020-Jan-20 13:29N 55°42' E 012°36'0 0.0
2020-Jan-20 11:59N 55°42' E 012°36'0 0.0
2020-Jan-20 10:59N 55°42' E 012°36'0 0.0
2020-Jan-20 09:29N 55°42' E 012°36'0 0.0
2020-Jan-20 08:56N 55°42' E 012°36'18 9.1
2020-Jan-20 07:01N 55°60' E 012°40'1414.1
2020-Jan-20 06:01N 56°12' E 012°27'7115.9
2020-Jan-20 01:31N 57°19' E 011°46'816.3
2020-Jan-20 01:01N 57°26' E 011°37'2516.7
2020-Jan-19 23:31N 57°49' E 011°17'4116.4
2020-Jan-19 21:00N 58°28' E 010°55'3316.4
2020-Jan-19 19:00N 59°00' E 010°42'917.5
2020-Jan-19 18:30N 59°09' E 010°39'3316.7
2020-Jan-19 16:30N 59°42' E 010°35'13 3.7
2020-Jan-19 12:58N 59°54' E 010°45'0 0.0
2020-Jan-19 10:58N 59°54' E 010°45'0 0.0
2020-Jan-19 10:28N 59°54' E 010°45'0 0.0
2020-Jan-19 09:58N 59°54' E 010°45'0 0.1
2020-Jan-19 08:29N 59°54' E 010°44'2713.7
2020-Jan-19 06:30N 59°27' E 010°34'3215.8
2020-Jan-19 04:30N 58°56' E 010°42'1615.4
2020-Jan-19 03:30N 58°41' E 010°46'4217.0
2020-Jan-19 01:00N 58°01' E 011°12'816.1
2020-Jan-19 00:31N 57°53' E 011°16'4016.2
2020-Jan-18 22:00N 57°17' E 011°49'816.2
2020-Jan-18 21:30N 57°09' E 011°56'6216.3
2020-Jan-18 17:42N 56°10' E 012°30'316.3
2020-Jan-18 17:30N 56°07' E 012°33'1616.0
2020-Jan-18 16:31N 55°53' E 012°44'1211.6
2020-Jan-18 15:30N 55°42' E 012°36'0 0.0
2020-Jan-18 15:00N 55°42' E 012°36'0 0.0
2020-Jan-18 13:24N 55°42' E 012°36'0 0.0
2020-Jan-18 10:30N 55°42' E 012°36'0 0.0
2020-Jan-18 09:54N 55°42' E 012°36'25 7.4
2020-Jan-18 06:30N 56°07' E 012°32'915.6
2020-Jan-18 05:55N 56°16' E 012°25'6216.0
2020-Jan-18 02:00N 57°15' E 011°49'1616.1
2020-Jan-18 01:00N 57°28' E 011°32'1716.8
2020-Jan-18 00:00N 57°43' E 011°19'6516.3
2020-Jan-17 20:00N 58°45' E 010°38'2416.0
2020-Jan-17 18:30N 59°09' E 010°38'1717.0
2020-Jan-17 17:30N 59°25' E 010°33'1615.6
2020-Jan-17 16:30N 59°41' E 010°36'14 9.1
2020-Jan-17 14:59N 59°54' E 010°45'0 0.0
2020-Jan-17 11:29N 59°54' E 010°45'0 0.1
2020-Jan-17 08:30N 59°54' E 010°44'2013.3
2020-Jan-17 07:00N 59°35' E 010°38'3215.8
2020-Jan-17 05:00N 59°03' E 010°41'815.8
2020-Jan-17 04:30N 58°55' E 010°43'815.3
2020-Jan-17 04:00N 58°47' E 010°44'2415.8
2020-Jan-17 02:30N 58°25' E 010°56'3216.0
2020-Jan-17 00:31N 57°54' E 011°16'11516.1
2020-Jan-16 17:22N 56°07' E 012°33'616.0
2020-Jan-16 17:00N 56°03' E 012°39'21 6.8
2020-Jan-16 13:57N 55°42' E 012°36'0 0.0
2020-Jan-16 13:00N 55°42' E 012°36'0 0.0
2020-Jan-16 12:30N 55°42' E 012°36'0 0.0
2020-Jan-16 11:48N 55°42' E 012°36'0 0.0
2020-Jan-16 11:00N 55°42' E 012°36'0 0.0
2020-Jan-16 09:30N 55°42' E 012°36'0 0.3
2020-Jan-16 08:30N 55°42' E 012°36'9515.2
2020-Jan-16 02:14N 57°14' E 011°51'1115.8
2020-Jan-16 01:30N 57°24' E 011°39'3216.0
2020-Jan-15 23:30N 57°52' E 011°11'1616.4
2020-Jan-15 22:30N 58°07' E 010°58'3915.7
2020-Jan-15 20:00N 58°45' E 010°38'816.2
2020-Jan-15 19:30N 58°53' E 010°38'2516.6
2020-Jan-15 18:00N 59°18' E 010°36'37 9.1
2020-Jan-15 13:59N 59°54' E 010°45'0 0.0
2020-Jan-15 12:29N 59°54' E 010°45'0 0.0
2020-Jan-15 11:29N 59°54' E 010°45'0 0.0
2020-Jan-15 09:29N 59°54' E 010°45'0 0.1
2020-Jan-15 08:30N 59°54' E 010°45'5114.7
2020-Jan-15 05:00N 59°03' E 010°41'  

Dump ship's entire track history